sensor_id;sensor_type;location;lat;lon;timestamp;P1;durP1;ratioP1;P2;durP2;ratioP2
32172;SDS011;18679;45.190;5.722;2023-07-24T00:01:57;9.30;;;3.05;;
32172;SDS011;18679;45.190;5.722;2023-07-24T00:04:58;6.97;;;2.72;;
32172;SDS011;18679;45.190;5.722;2023-07-24T00:07:59;4.88;;;2.83;;
32172;SDS011;18679;45.190;5.722;2023-07-24T00:10:59;7.53;;;3.70;;
32172;SDS011;18679;45.190;5.722;2023-07-24T00:14:03;7.28;;;3.30;;
32172;SDS011;18679;45.190;5.722;2023-07-24T00:17:04;5.18;;;3.15;;
32172;SDS011;18679;45.190;5.722;2023-07-24T00:20:05;16.40;;;3.50;;
32172;SDS011;18679;45.190;5.722;2023-07-24T00:23:07;10.05;;;3.15;;
32172;SDS011;18679;45.190;5.722;2023-07-24T00:26:07;11.23;;;3.38;;
32172;SDS011;18679;45.190;5.722;2023-07-24T00:29:08;16.63;;;2.67;;
32172;SDS011;18679;45.190;5.722;2023-07-24T00:32:09;8.52;;;3.65;;
32172;SDS011;18679;45.190;5.722;2023-07-24T00:35:10;12.43;;;3.72;;
32172;SDS011;18679;45.190;5.722;2023-07-24T00:38:13;12.55;;;3.25;;
32172;SDS011;18679;45.190;5.722;2023-07-24T00:41:14;5.30;;;2.88;;
32172;SDS011;18679;45.190;5.722;2023-07-24T00:44:18;5.20;;;2.88;;
32172;SDS011;18679;45.190;5.722;2023-07-24T00:47:21;6.90;;;2.85;;
32172;SDS011;18679;45.190;5.722;2023-07-24T00:50:24;8.98;;;3.30;;
32172;SDS011;18679;45.190;5.722;2023-07-24T00:53:25;7.95;;;3.75;;
32172;SDS011;18679;45.190;5.722;2023-07-24T00:56:26;7.00;;;3.17;;
32172;SDS011;18679;45.190;5.722;2023-07-24T00:59:29;11.57;;;2.90;;
32172;SDS011;18679;45.190;5.722;2023-07-24T01:02:30;7.80;;;3.08;;
32172;SDS011;18679;45.190;5.722;2023-07-24T01:05:37;10.02;;;3.70;;
32172;SDS011;18679;45.190;5.722;2023-07-24T01:08:44;9.40;;;3.30;;
32172;SDS011;18679;45.190;5.722;2023-07-24T01:15:25;8.50;;;3.03;;
32172;SDS011;18679;45.190;5.722;2023-07-24T01:18:34;8.13;;;3.22;;
32172;SDS011;18679;45.190;5.722;2023-07-24T01:21:44;11.85;;;3.25;;
32172;SDS011;18679;45.190;5.722;2023-07-24T01:25:32;9.38;;;3.03;;
32172;SDS011;18679;45.190;5.722;2023-07-24T01:28:41;4.72;;;2.70;;
32172;SDS011;18679;45.190;5.722;2023-07-24T01:31:53;7.78;;;3.78;;
32172;SDS011;18679;45.190;5.722;2023-07-24T01:34:57;17.63;;;3.30;;
32172;SDS011;18679;45.190;5.722;2023-07-24T01:38:31;6.50;;;3.40;;
32172;SDS011;18679;45.190;5.722;2023-07-24T01:41:33;6.55;;;3.22;;
32172;SDS011;18679;45.190;5.722;2023-07-24T01:44:34;10.15;;;3.20;;
32172;SDS011;18679;45.190;5.722;2023-07-24T01:47:35;6.15;;;2.70;;
32172;SDS011;18679;45.190;5.722;2023-07-24T01:50:36;8.90;;;3.30;;
32172;SDS011;18679;45.190;5.722;2023-07-24T01:53:36;7.50;;;3.35;;
32172;SDS011;18679;45.190;5.722;2023-07-24T01:56:43;8.52;;;2.95;;
32172;SDS011;18679;45.190;5.722;2023-07-24T01:59:46;9.00;;;2.45;;
32172;SDS011;18679;45.190;5.722;2023-07-24T02:02:49;6.35;;;3.38;;
32172;SDS011;18679;45.190;5.722;2023-07-24T02:05:50;12.15;;;3.70;;
32172;SDS011;18679;45.190;5.722;2023-07-24T02:08:51;8.00;;;3.38;;
32172;SDS011;18679;45.190;5.722;2023-07-24T02:11:52;9.07;;;3.17;;
32172;SDS011;18679;45.190;5.722;2023-07-24T02:14:55;14.77;;;3.40;;
32172;SDS011;18679;45.190;5.722;2023-07-24T02:18:00;7.80;;;3.05;;
32172;SDS011;18679;45.190;5.722;2023-07-24T02:21:01;12.30;;;3.25;;
32172;SDS011;18679;45.190;5.722;2023-07-24T02:24:02;5.07;;;3.08;;
32172;SDS011;18679;45.190;5.722;2023-07-24T02:27:05;5.78;;;3.15;;
32172;SDS011;18679;45.190;5.722;2023-07-24T02:30:06;3.47;;;2.03;;
32172;SDS011;18679;45.190;5.722;2023-07-24T02:33:09;7.53;;;3.10;;
32172;SDS011;18679;45.190;5.722;2023-07-24T02:36:10;7.90;;;3.33;;
32172;SDS011;18679;45.190;5.722;2023-07-24T02:39:10;10.27;;;3.33;;
32172;SDS011;18679;45.190;5.722;2023-07-24T02:42:11;7.40;;;3.10;;
32172;SDS011;18679;45.190;5.722;2023-07-24T02:45:12;6.22;;;3.10;;
32172;SDS011;18679;45.190;5.722;2023-07-24T02:48:13;6.63;;;3.10;;
32172;SDS011;18679;45.190;5.722;2023-07-24T02:51:14;9.25;;;3.35;;
32172;SDS011;18679;45.190;5.722;2023-07-24T02:54:15;6.72;;;2.85;;
32172;SDS011;18679;45.190;5.722;2023-07-24T02:57:15;6.03;;;2.47;;
32172;SDS011;18679;45.190;5.722;2023-07-24T03:00:16;9.35;;;2.78;;
32172;SDS011;18679;45.190;5.722;2023-07-24T03:03:17;8.00;;;3.45;;
32172;SDS011;18679;45.190;5.722;2023-07-24T03:06:18;7.00;;;2.92;;
32172;SDS011;18679;45.190;5.722;2023-07-24T03:09:19;6.50;;;2.78;;
32172;SDS011;18679;45.190;5.722;2023-07-24T03:12:20;8.70;;;3.10;;
32172;SDS011;18679;45.190;5.722;2023-07-24T03:15:21;11.15;;;3.30;;
32172;SDS011;18679;45.190;5.722;2023-07-24T03:18:22;8.07;;;3.10;;
32172;SDS011;18679;45.190;5.722;2023-07-24T03:21:24;8.80;;;3.17;;
32172;SDS011;18679;45.190;5.722;2023-07-24T03:24:27;7.82;;;3.17;;
32172;SDS011;18679;45.190;5.722;2023-07-24T03:27:28;7.35;;;3.00;;
32172;SDS011;18679;45.190;5.722;2023-07-24T03:30:29;5.28;;;2.80;;
32172;SDS011;18679;45.190;5.722;2023-07-24T03:33:31;7.50;;;3.10;;
32172;SDS011;18679;45.190;5.722;2023-07-24T03:36:32;3.80;;;2.25;;
32172;SDS011;18679;45.190;5.722;2023-07-24T03:39:33;6.38;;;2.92;;
32172;SDS011;18679;45.190;5.722;2023-07-24T03:42:34;8.30;;;3.58;;
32172;SDS011;18679;45.190;5.722;2023-07-24T03:45:35;6.70;;;2.83;;
32172;SDS011;18679;45.190;5.722;2023-07-24T03:48:36;7.70;;;2.90;;
32172;SDS011;18679;45.190;5.722;2023-07-24T03:51:37;16.13;;;3.63;;
32172;SDS011;18679;45.190;5.722;2023-07-24T03:54:38;7.30;;;2.90;;
32172;SDS011;18679;45.190;5.722;2023-07-24T03:57:39;7.35;;;3.08;;
32172;SDS011;18679;45.190;5.722;2023-07-24T04:00:39;5.63;;;2.60;;
32172;SDS011;18679;45.190;5.722;2023-07-24T04:03:40;7.75;;;3.38;;
32172;SDS011;18679;45.190;5.722;2023-07-24T04:06:41;11.27;;;3.35;;
32172;SDS011;18679;45.190;5.722;2023-07-24T04:09:42;8.27;;;3.97;;
32172;SDS011;18679;45.190;5.722;2023-07-24T04:12:43;9.38;;;4.05;;
32172;SDS011;18679;45.190;5.722;2023-07-24T04:15:43;14.60;;;3.28;;
32172;SDS011;18679;45.190;5.722;2023-07-24T04:18:44;16.02;;;4.30;;
32172;SDS011;18679;45.190;5.722;2023-07-24T04:21:45;11.43;;;3.97;;
32172;SDS011;18679;45.190;5.722;2023-07-24T04:24:46;4.72;;;2.92;;
32172;SDS011;18679;45.190;5.722;2023-07-24T04:27:49;13.50;;;3.30;;
32172;SDS011;18679;45.190;5.722;2023-07-24T04:30:50;11.95;;;3.53;;
32172;SDS011;18679;45.190;5.722;2023-07-24T04:33:51;12.88;;;3.50;;
32172;SDS011;18679;45.190;5.722;2023-07-24T04:36:51;4.78;;;3.03;;
32172;SDS011;18679;45.190;5.722;2023-07-24T04:39:52;6.85;;;3.00;;
32172;SDS011;18679;45.190;5.722;2023-07-24T04:42:53;8.18;;;3.25;;
32172;SDS011;18679;45.190;5.722;2023-07-24T04:45:54;6.28;;;3.17;;
32172;SDS011;18679;45.190;5.722;2023-07-24T04:48:55;8.75;;;3.50;;
32172;SDS011;18679;45.190;5.722;2023-07-24T04:51:56;6.75;;;3.35;;
32172;SDS011;18679;45.190;5.722;2023-07-24T04:54:56;10.40;;;3.85;;
32172;SDS011;18679;45.190;5.722;2023-07-24T04:58:00;9.65;;;3.95;;
32172;SDS011;18679;45.190;5.722;2023-07-24T05:01:04;7.50;;;3.53;;
32172;SDS011;18679;45.190;5.722;2023-07-24T05:04:05;9.68;;;3.88;;
32172;SDS011;18679;45.190;5.722;2023-07-24T05:07:06;7.68;;;3.78;;
32172;SDS011;18679;45.190;5.722;2023-07-24T05:10:07;15.52;;;4.32;;
32172;SDS011;18679;45.190;5.722;2023-07-24T05:13:08;11.35;;;3.78;;
32172;SDS011;18679;45.190;5.722;2023-07-24T05:16:09;18.38;;;4.22;;
32172;SDS011;18679;45.190;5.722;2023-07-24T05:19:09;9.70;;;3.55;;
32172;SDS011;18679;45.190;5.722;2023-07-24T05:22:10;9.45;;;4.05;;
32172;SDS011;18679;45.190;5.722;2023-07-24T05:25:11;12.93;;;4.30;;
32172;SDS011;18679;45.190;5.722;2023-07-24T05:28:12;5.45;;;3.42;;
32172;SDS011;18679;45.190;5.722;2023-07-24T05:31:13;9.50;;;3.47;;
32172;SDS011;18679;45.190;5.722;2023-07-24T05:34:13;10.30;;;3.80;;
32172;SDS011;18679;45.190;5.722;2023-07-24T05:37:14;9.38;;;4.18;;
32172;SDS011;18679;45.190;5.722;2023-07-24T05:40:15;10.23;;;4.35;;
32172;SDS011;18679;45.190;5.722;2023-07-24T05:43:16;10.73;;;4.25;;
32172;SDS011;18679;45.190;5.722;2023-07-24T05:46:17;12.05;;;4.95;;
32172;SDS011;18679;45.190;5.722;2023-07-24T05:49:17;12.48;;;4.55;;
32172;SDS011;18679;45.190;5.722;2023-07-24T05:52:18;16.02;;;4.78;;
32172;SDS011;18679;45.190;5.722;2023-07-24T05:55:19;12.70;;;4.18;;
32172;SDS011;18679;45.190;5.722;2023-07-24T05:58:20;6.82;;;3.72;;
32172;SDS011;18679;45.190;5.722;2023-07-24T06:01:21;6.03;;;3.85;;
32172;SDS011;18679;45.190;5.722;2023-07-24T06:04:21;10.95;;;4.28;;
32172;SDS011;18679;45.190;5.722;2023-07-24T06:07:22;11.18;;;4.28;;
32172;SDS011;18679;45.190;5.722;2023-07-24T06:10:25;13.95;;;4.57;;
32172;SDS011;18679;45.190;5.722;2023-07-24T06:13:26;14.98;;;3.95;;
32172;SDS011;18679;45.190;5.722;2023-07-24T06:16:27;7.57;;;4.18;;
32172;SDS011;18679;45.190;5.722;2023-07-24T06:19:28;9.60;;;4.50;;
32172;SDS011;18679;45.190;5.722;2023-07-24T06:22:29;12.75;;;3.85;;
32172;SDS011;18679;45.190;5.722;2023-07-24T06:25:30;8.68;;;4.10;;
32172;SDS011;18679;45.190;5.722;2023-07-24T06:28:31;11.48;;;4.70;;
32172;SDS011;18679;45.190;5.722;2023-07-24T06:31:33;7.47;;;3.95;;
32172;SDS011;18679;45.190;5.722;2023-07-24T06:34:34;7.10;;;3.63;;
32172;SDS011;18679;45.190;5.722;2023-07-24T06:37:35;8.25;;;4.18;;
32172;SDS011;18679;45.190;5.722;2023-07-24T06:40:38;13.60;;;4.47;;
32172;SDS011;18679;45.190;5.722;2023-07-24T06:43:41;17.35;;;4.72;;
32172;SDS011;18679;45.190;5.722;2023-07-24T06:46:42;23.02;;;4.63;;
32172;SDS011;18679;45.190;5.722;2023-07-24T06:49:43;21.98;;;4.20;;
32172;SDS011;18679;45.190;5.722;2023-07-24T06:52:44;10.32;;;3.92;;
32172;SDS011;18679;45.190;5.722;2023-07-24T06:55:45;6.80;;;3.65;;
32172;SDS011;18679;45.190;5.722;2023-07-24T06:58:46;12.20;;;4.38;;
32172;SDS011;18679;45.190;5.722;2023-07-24T07:01:49;10.50;;;3.75;;
32172;SDS011;18679;45.190;5.722;2023-07-24T07:04:50;7.10;;;3.50;;
32172;SDS011;18679;45.190;5.722;2023-07-24T07:07:50;12.82;;;4.28;;
32172;SDS011;18679;45.190;5.722;2023-07-24T07:10:58;8.45;;;4.13;;
32172;SDS011;18679;45.190;5.722;2023-07-24T07:14:00;13.38;;;4.00;;
32172;SDS011;18679;45.190;5.722;2023-07-24T07:17:01;8.07;;;3.83;;
32172;SDS011;18679;45.190;5.722;2023-07-24T07:20:02;22.05;;;4.18;;
32172;SDS011;18679;45.190;5.722;2023-07-24T07:23:03;9.60;;;3.58;;
32172;SDS011;18679;45.190;5.722;2023-07-24T07:26:04;10.15;;;3.92;;
32172;SDS011;18679;45.190;5.722;2023-07-24T07:29:04;10.52;;;4.18;;
32172;SDS011;18679;45.190;5.722;2023-07-24T07:32:05;11.50;;;3.80;;
32172;SDS011;18679;45.190;5.722;2023-07-24T07:35:07;10.90;;;4.65;;
32172;SDS011;18679;45.190;5.722;2023-07-24T07:38:08;7.80;;;3.85;;
32172;SDS011;18679;45.190;5.722;2023-07-24T07:41:08;10.70;;;4.03;;
32172;SDS011;18679;45.190;5.722;2023-07-24T07:44:09;7.80;;;3.95;;
32172;SDS011;18679;45.190;5.722;2023-07-24T07:47:10;10.63;;;4.28;;
32172;SDS011;18679;45.190;5.722;2023-07-24T07:50:11;12.13;;;3.83;;
32172;SDS011;18679;45.190;5.722;2023-07-24T07:53:12;9.23;;;4.15;;
32172;SDS011;18679;45.190;5.722;2023-07-24T07:56:13;17.10;;;4.40;;
32172;SDS011;18679;45.190;5.722;2023-07-24T07:59:14;7.07;;;3.65;;
32172;SDS011;18679;45.190;5.722;2023-07-24T08:02:15;10.35;;;5.07;;
32172;SDS011;18679;45.190;5.722;2023-07-24T08:05:16;8.13;;;4.28;;
32172;SDS011;18679;45.190;5.722;2023-07-24T08:08:16;9.98;;;4.18;;
32172;SDS011;18679;45.190;5.722;2023-07-24T08:11:17;11.35;;;4.38;;
32172;SDS011;18679;45.190;5.722;2023-07-24T08:14:18;11.05;;;4.45;;
32172;SDS011;18679;45.190;5.722;2023-07-24T08:17:19;10.30;;;4.70;;
32172;SDS011;18679;45.190;5.722;2023-07-24T08:20:20;15.30;;;5.20;;
32172;SDS011;18679;45.190;5.722;2023-07-24T08:23:21;13.02;;;3.97;;
32172;SDS011;18679;45.190;5.722;2023-07-24T08:26:22;20.05;;;4.32;;
32172;SDS011;18679;45.190;5.722;2023-07-24T08:29:24;12.45;;;4.28;;
32172;SDS011;18679;45.190;5.722;2023-07-24T08:32:25;9.18;;;4.47;;
32172;SDS011;18679;45.190;5.722;2023-07-24T08:35:26;10.25;;;4.00;;
32172;SDS011;18679;45.190;5.722;2023-07-24T08:38:27;11.13;;;4.05;;
32172;SDS011;18679;45.190;5.722;2023-07-24T08:41:31;13.88;;;4.25;;
32172;SDS011;18679;45.190;5.722;2023-07-24T08:44:34;10.57;;;3.97;;
32172;SDS011;18679;45.190;5.722;2023-07-24T08:47:35;11.82;;;4.63;;
32172;SDS011;18679;45.190;5.722;2023-07-24T08:50:37;10.05;;;3.78;;
32172;SDS011;18679;45.190;5.722;2023-07-24T08:53:38;14.98;;;4.00;;
32172;SDS011;18679;45.190;5.722;2023-07-24T08:56:40;11.93;;;4.03;;
32172;SDS011;18679;45.190;5.722;2023-07-24T08:59:42;10.63;;;3.80;;
32172;SDS011;18679;45.190;5.722;2023-07-24T09:02:42;9.45;;;4.22;;
32172;SDS011;18679;45.190;5.722;2023-07-24T09:05:43;11.23;;;3.67;;
32172;SDS011;18679;45.190;5.722;2023-07-24T09:08:44;6.60;;;3.50;;
32172;SDS011;18679;45.190;5.722;2023-07-24T09:11:48;7.50;;;3.83;;
32172;SDS011;18679;45.190;5.722;2023-07-24T09:15:00;10.80;;;3.72;;
32172;SDS011;18679;45.190;5.722;2023-07-24T09:18:03;9.60;;;3.83;;
32172;SDS011;18679;45.190;5.722;2023-07-24T09:21:03;7.82;;;3.20;;
32172;SDS011;18679;45.190;5.722;2023-07-24T09:24:11;7.95;;;3.00;;
32172;SDS011;18679;45.190;5.722;2023-07-24T09:27:13;7.60;;;3.88;;
32172;SDS011;18679;45.190;5.722;2023-07-24T09:30:14;5.35;;;3.20;;
32172;SDS011;18679;45.190;5.722;2023-07-24T09:33:15;7.15;;;3.28;;
32172;SDS011;18679;45.190;5.722;2023-07-24T09:36:16;6.95;;;3.28;;
32172;SDS011;18679;45.190;5.722;2023-07-24T09:39:26;8.55;;;3.88;;
32172;SDS011;18679;45.190;5.722;2023-07-24T09:42:31;8.70;;;3.70;;
32172;SDS011;18679;45.190;5.722;2023-07-24T09:45:33;9.63;;;3.70;;
32172;SDS011;18679;45.190;5.722;2023-07-24T09:48:34;11.27;;;3.55;;
32172;SDS011;18679;45.190;5.722;2023-07-24T09:51:36;9.63;;;3.65;;
32172;SDS011;18679;45.190;5.722;2023-07-24T09:54:41;10.20;;;3.55;;
32172;SDS011;18679;45.190;5.722;2023-07-24T09:58:06;10.63;;;3.75;;
32172;SDS011;18679;45.190;5.722;2023-07-24T10:01:09;9.07;;;3.65;;
32172;SDS011;18679;45.190;5.722;2023-07-24T10:04:10;8.65;;;4.10;;
32172;SDS011;18679;45.190;5.722;2023-07-24T10:07:12;8.48;;;4.35;;
32172;SDS011;18679;45.190;5.722;2023-07-24T10:10:14;6.88;;;3.80;;
32172;SDS011;18679;45.190;5.722;2023-07-24T10:13:15;13.07;;;3.42;;
32172;SDS011;18679;45.190;5.722;2023-07-24T10:16:16;5.45;;;3.65;;
32172;SDS011;18679;45.190;5.722;2023-07-24T10:19:17;12.50;;;4.78;;
32172;SDS011;18679;45.190;5.722;2023-07-24T10:22:18;11.00;;;4.03;;
32172;SDS011;18679;45.190;5.722;2023-07-24T10:25:28;7.30;;;3.55;;
32172;SDS011;18679;45.190;5.722;2023-07-24T10:28:35;8.65;;;4.03;;
32172;SDS011;18679;45.190;5.722;2023-07-24T10:31:40;6.85;;;3.75;;
32172;SDS011;18679;45.190;5.722;2023-07-24T10:34:41;11.00;;;3.95;;
32172;SDS011;18679;45.190;5.722;2023-07-24T10:37:42;8.27;;;4.50;;
32172;SDS011;18679;45.190;5.722;2023-07-24T10:40:45;9.30;;;4.15;;
32172;SDS011;18679;45.190;5.722;2023-07-24T10:43:48;6.07;;;3.20;;
32172;SDS011;18679;45.190;5.722;2023-07-24T10:46:50;7.97;;;3.95;;
32172;SDS011;18679;45.190;5.722;2023-07-24T10:49:51;5.40;;;3.08;;
32172;SDS011;18679;45.190;5.722;2023-07-24T10:52:52;7.38;;;2.75;;
32172;SDS011;18679;45.190;5.722;2023-07-24T10:55:53;6.85;;;3.25;;
32172;SDS011;18679;45.190;5.722;2023-07-24T10:58:54;9.43;;;3.38;;
32172;SDS011;18679;45.190;5.722;2023-07-24T11:01:55;9.38;;;3.38;;
32172;SDS011;18679;45.190;5.722;2023-07-24T11:04:58;8.77;;;3.35;;
32172;SDS011;18679;45.190;5.722;2023-07-24T11:08:00;12.57;;;3.38;;
32172;SDS011;18679;45.190;5.722;2023-07-24T11:11:08;10.57;;;3.53;;
32172;SDS011;18679;45.190;5.722;2023-07-24T11:14:13;4.57;;;2.72;;
32172;SDS011;18679;45.190;5.722;2023-07-24T11:17:15;8.55;;;3.70;;
32172;SDS011;18679;45.190;5.722;2023-07-24T11:20:15;7.63;;;3.38;;
32172;SDS011;18679;45.190;5.722;2023-07-24T11:23:17;6.43;;;3.30;;
32172;SDS011;18679;45.190;5.722;2023-07-24T11:26:19;11.60;;;3.72;;
32172;SDS011;18679;45.190;5.722;2023-07-24T11:29:21;6.97;;;3.08;;
32172;SDS011;18679;45.190;5.722;2023-07-24T11:32:23;7.35;;;3.50;;
32172;SDS011;18679;45.190;5.722;2023-07-24T11:35:24;6.28;;;3.00;;
32172;SDS011;18679;45.190;5.722;2023-07-24T11:38:26;20.17;;;3.20;;
32172;SDS011;18679;45.190;5.722;2023-07-24T11:41:27;5.45;;;3.05;;
32172;SDS011;18679;45.190;5.722;2023-07-24T11:44:29;8.27;;;3.47;;
32172;SDS011;18679;45.190;5.722;2023-07-24T11:47:30;4.05;;;2.53;;
32172;SDS011;18679;45.190;5.722;2023-07-24T11:50:41;6.32;;;3.45;;
32172;SDS011;18679;45.190;5.722;2023-07-24T11:53:42;8.65;;;2.90;;
32172;SDS011;18679;45.190;5.722;2023-07-24T11:56:43;7.38;;;3.63;;
32172;SDS011;18679;45.190;5.722;2023-07-24T11:59:44;6.30;;;2.95;;
32172;SDS011;18679;45.190;5.722;2023-07-24T12:02:45;5.22;;;2.78;;
32172;SDS011;18679;45.190;5.722;2023-07-24T12:05:46;4.80;;;2.95;;
32172;SDS011;18679;45.190;5.722;2023-07-24T12:08:46;10.57;;;2.80;;
32172;SDS011;18679;45.190;5.722;2023-07-24T12:11:47;9.75;;;3.72;;
32172;SDS011;18679;45.190;5.722;2023-07-24T12:14:49;10.68;;;3.67;;
32172;SDS011;18679;45.190;5.722;2023-07-24T12:17:50;7.20;;;3.60;;
32172;SDS011;18679;45.190;5.722;2023-07-24T12:20:50;7.10;;;3.22;;
32172;SDS011;18679;45.190;5.722;2023-07-24T12:23:51;8.95;;;3.35;;
32172;SDS011;18679;45.190;5.722;2023-07-24T12:26:52;10.27;;;3.08;;
32172;SDS011;18679;45.190;5.722;2023-07-24T12:29:53;7.82;;;2.90;;
32172;SDS011;18679;45.190;5.722;2023-07-24T12:32:54;5.25;;;3.22;;
32172;SDS011;18679;45.190;5.722;2023-07-24T12:35:54;9.35;;;4.03;;
32172;SDS011;18679;45.190;5.722;2023-07-24T12:38:55;10.50;;;3.25;;
32172;SDS011;18679;45.190;5.722;2023-07-24T12:41:56;9.85;;;4.20;;
32172;SDS011;18679;45.190;5.722;2023-07-24T12:44:57;9.18;;;3.30;;
32172;SDS011;18679;45.190;5.722;2023-07-24T12:47:58;4.07;;;3.03;;
32172;SDS011;18679;45.190;5.722;2023-07-24T12:50:59;12.05;;;4.00;;
32172;SDS011;18679;45.190;5.722;2023-07-24T12:54:01;8.00;;;4.18;;
32172;SDS011;18679;45.190;5.722;2023-07-24T12:57:04;7.38;;;3.90;;
32172;SDS011;18679;45.190;5.722;2023-07-24T13:00:06;6.57;;;3.78;;
32172;SDS011;18679;45.190;5.722;2023-07-24T13:03:07;5.93;;;3.10;;
32172;SDS011;18679;45.190;5.722;2023-07-24T13:06:08;7.22;;;3.22;;
32172;SDS011;18679;45.190;5.722;2023-07-24T13:09:09;6.18;;;3.30;;
32172;SDS011;18679;45.190;5.722;2023-07-24T13:12:10;6.05;;;3.35;;
32172;SDS011;18679;45.190;5.722;2023-07-24T13:15:10;9.32;;;3.35;;
32172;SDS011;18679;45.190;5.722;2023-07-24T13:18:11;7.13;;;3.65;;
32172;SDS011;18679;45.190;5.722;2023-07-24T13:21:14;7.30;;;3.55;;
32172;SDS011;18679;45.190;5.722;2023-07-24T13:24:15;8.52;;;3.65;;
32172;SDS011;18679;45.190;5.722;2023-07-24T13:27:16;11.40;;;3.45;;
32172;SDS011;18679;45.190;5.722;2023-07-24T13:30:16;7.95;;;3.72;;
32172;SDS011;18679;45.190;5.722;2023-07-24T13:33:18;7.15;;;3.53;;
32172;SDS011;18679;45.190;5.722;2023-07-24T13:36:19;9.85;;;3.85;;
32172;SDS011;18679;45.190;5.722;2023-07-24T13:39:20;17.40;;;3.85;;
32172;SDS011;18679;45.190;5.722;2023-07-24T13:42:21;12.55;;;3.78;;
32172;SDS011;18679;45.190;5.722;2023-07-24T13:45:22;8.15;;;3.97;;
32172;SDS011;18679;45.190;5.722;2023-07-24T13:48:23;8.15;;;3.10;;
32172;SDS011;18679;45.190;5.722;2023-07-24T13:51:24;6.18;;;3.25;;
32172;SDS011;18679;45.190;5.722;2023-07-24T13:54:25;11.80;;;4.28;;
32172;SDS011;18679;45.190;5.722;2023-07-24T13:57:26;13.00;;;3.63;;
32172;SDS011;18679;45.190;5.722;2023-07-24T14:00:26;10.18;;;3.10;;
32172;SDS011;18679;45.190;5.722;2023-07-24T14:03:27;12.23;;;4.20;;
32172;SDS011;18679;45.190;5.722;2023-07-24T14:06:29;6.25;;;3.00;;
32172;SDS011;18679;45.190;5.722;2023-07-24T14:09:30;6.30;;;3.40;;
32172;SDS011;18679;45.190;5.722;2023-07-24T14:12:32;8.05;;;3.58;;
32172;SDS011;18679;45.190;5.722;2023-07-24T14:15:33;9.85;;;3.55;;
32172;SDS011;18679;45.190;5.722;2023-07-24T14:18:34;6.82;;;3.08;;
32172;SDS011;18679;45.190;5.722;2023-07-24T14:21:35;5.20;;;3.10;;
32172;SDS011;18679;45.190;5.722;2023-07-24T14:24:35;6.72;;;3.45;;
32172;SDS011;18679;45.190;5.722;2023-07-24T14:27:36;7.10;;;3.72;;
32172;SDS011;18679;45.190;5.722;2023-07-24T14:30:37;8.30;;;3.83;;
32172;SDS011;18679;45.190;5.722;2023-07-24T14:33:38;5.95;;;3.30;;
32172;SDS011;18679;45.190;5.722;2023-07-24T14:36:39;9.75;;;3.05;;
32172;SDS011;18679;45.190;5.722;2023-07-24T14:39:39;5.07;;;3.08;;
32172;SDS011;18679;45.190;5.722;2023-07-24T14:42:40;11.00;;;3.47;;
32172;SDS011;18679;45.190;5.722;2023-07-24T14:45:41;9.60;;;3.45;;
32172;SDS011;18679;45.190;5.722;2023-07-24T14:48:42;9.30;;;3.15;;
32172;SDS011;18679;45.190;5.722;2023-07-24T14:51:43;10.90;;;3.42;;
32172;SDS011;18679;45.190;5.722;2023-07-24T14:54:43;8.02;;;3.28;;
32172;SDS011;18679;45.190;5.722;2023-07-24T14:57:44;11.80;;;3.78;;
32172;SDS011;18679;45.190;5.722;2023-07-24T15:00:45;6.97;;;3.80;;
32172;SDS011;18679;45.190;5.722;2023-07-24T15:03:46;8.57;;;3.20;;
32172;SDS011;18679;45.190;5.722;2023-07-24T15:06:47;7.22;;;3.53;;
32172;SDS011;18679;45.190;5.722;2023-07-24T15:09:47;13.68;;;4.13;;
32172;SDS011;18679;45.190;5.722;2023-07-24T15:12:48;9.60;;;3.50;;
32172;SDS011;18679;45.190;5.722;2023-07-24T15:15:49;6.72;;;3.05;;
32172;SDS011;18679;45.190;5.722;2023-07-24T15:18:50;8.75;;;3.38;;
32172;SDS011;18679;45.190;5.722;2023-07-24T15:21:51;11.38;;;3.67;;
32172;SDS011;18679;45.190;5.722;2023-07-24T15:24:51;5.70;;;3.35;;
32172;SDS011;18679;45.190;5.722;2023-07-24T15:27:52;11.25;;;3.60;;
32172;SDS011;18679;45.190;5.722;2023-07-24T15:30:53;7.72;;;3.47;;
32172;SDS011;18679;45.190;5.722;2023-07-24T15:33:54;14.05;;;3.60;;
32172;SDS011;18679;45.190;5.722;2023-07-24T15:36:56;8.50;;;3.30;;
32172;SDS011;18679;45.190;5.722;2023-07-24T15:39:58;6.15;;;3.40;;
32172;SDS011;18679;45.190;5.722;2023-07-24T15:42:59;5.22;;;3.17;;
32172;SDS011;18679;45.190;5.722;2023-07-24T15:46:00;8.23;;;3.67;;
32172;SDS011;18679;45.190;5.722;2023-07-24T15:49:01;9.23;;;3.30;;
32172;SDS011;18679;45.190;5.722;2023-07-24T15:52:01;5.90;;;3.40;;
32172;SDS011;18679;45.190;5.722;2023-07-24T15:58:10;4.68;;;2.67;;
32172;SDS011;18679;45.190;5.722;2023-07-24T16:01:11;11.68;;;3.45;;
32172;SDS011;18679;45.190;5.722;2023-07-24T16:04:12;7.72;;;3.63;;
32172;SDS011;18679;45.190;5.722;2023-07-24T16:07:13;5.25;;;2.95;;
32172;SDS011;18679;45.190;5.722;2023-07-24T16:10:14;5.90;;;2.97;;
32172;SDS011;18679;45.190;5.722;2023-07-24T16:13:19;6.68;;;2.92;;
32172;SDS011;18679;45.190;5.722;2023-07-24T16:16:19;5.18;;;2.80;;
32172;SDS011;18679;45.190;5.722;2023-07-24T16:19:20;6.30;;;2.20;;
32172;SDS011;18679;45.190;5.722;2023-07-24T16:22:22;5.13;;;2.70;;
32172;SDS011;18679;45.190;5.722;2023-07-24T16:25:22;7.03;;;2.85;;
32172;SDS011;18679;45.190;5.722;2023-07-24T16:28:23;7.43;;;2.60;;
32172;SDS011;18679;45.190;5.722;2023-07-24T16:31:24;6.15;;;2.85;;
32172;SDS011;18679;45.190;5.722;2023-07-24T16:34:25;11.02;;;2.83;;
32172;SDS011;18679;45.190;5.722;2023-07-24T16:37:26;4.82;;;2.60;;
32172;SDS011;18679;45.190;5.722;2023-07-24T16:40:30;5.68;;;3.10;;
32172;SDS011;18679;45.190;5.722;2023-07-24T16:43:31;5.32;;;2.63;;
32172;SDS011;18679;45.190;5.722;2023-07-24T16:46:31;5.18;;;2.42;;
32172;SDS011;18679;45.190;5.722;2023-07-24T16:49:32;7.78;;;3.25;;
32172;SDS011;18679;45.190;5.722;2023-07-24T16:52:33;9.25;;;2.60;;
32172;SDS011;18679;45.190;5.722;2023-07-24T16:55:35;5.53;;;3.13;;
32172;SDS011;18679;45.190;5.722;2023-07-24T16:58:36;4.50;;;2.70;;
32172;SDS011;18679;45.190;5.722;2023-07-24T17:01:36;7.70;;;2.97;;
32172;SDS011;18679;45.190;5.722;2023-07-24T17:04:37;4.38;;;2.65;;
32172;SDS011;18679;45.190;5.722;2023-07-24T17:07:41;4.85;;;2.63;;
32172;SDS011;18679;45.190;5.722;2023-07-24T17:10:43;7.75;;;2.42;;
32172;SDS011;18679;45.190;5.722;2023-07-24T17:13:45;6.75;;;3.08;;
32172;SDS011;18679;45.190;5.722;2023-07-24T17:16:47;5.22;;;2.65;;
32172;SDS011;18679;45.190;5.722;2023-07-24T17:19:51;5.97;;;2.58;;
32172;SDS011;18679;45.190;5.722;2023-07-24T17:22:52;7.03;;;3.10;;
32172;SDS011;18679;45.190;5.722;2023-07-24T17:25:54;5.25;;;2.75;;
32172;SDS011;18679;45.190;5.722;2023-07-24T17:28:54;6.65;;;2.80;;
32172;SDS011;18679;45.190;5.722;2023-07-24T17:31:56;6.30;;;3.05;;
32172;SDS011;18679;45.190;5.722;2023-07-24T17:34:58;9.77;;;3.00;;
32172;SDS011;18679;45.190;5.722;2023-07-24T17:38:00;11.60;;;4.28;;
32172;SDS011;18679;45.190;5.722;2023-07-24T17:41:01;9.15;;;3.70;;
32172;SDS011;18679;45.190;5.722;2023-07-24T17:44:04;12.90;;;4.43;;
32172;SDS011;18679;45.190;5.722;2023-07-24T17:47:05;12.55;;;4.20;;
32172;SDS011;18679;45.190;5.722;2023-07-24T17:50:06;6.13;;;3.25;;
32172;SDS011;18679;45.190;5.722;2023-07-24T17:53:07;6.70;;;3.17;;
32172;SDS011;18679;45.190;5.722;2023-07-24T17:56:08;6.50;;;3.25;;
32172;SDS011;18679;45.190;5.722;2023-07-24T17:59:08;7.82;;;3.97;;
32172;SDS011;18679;45.190;5.722;2023-07-24T18:02:09;9.50;;;3.40;;
32172;SDS011;18679;45.190;5.722;2023-07-24T18:05:10;9.90;;;3.55;;
32172;SDS011;18679;45.190;5.722;2023-07-24T18:08:11;4.75;;;2.78;;
32172;SDS011;18679;45.190;5.722;2023-07-24T18:11:12;14.45;;;6.43;;
32172;SDS011;18679;45.190;5.722;2023-07-24T18:14:13;15.50;;;6.43;;
32172;SDS011;18679;45.190;5.722;2023-07-24T18:17:13;9.70;;;4.57;;